createdAt,value
2023-04-12T00:00:14.742Z,5.10
2023-04-12T00:01:14.732Z,4.70
2023-04-12T00:02:14.809Z,4.70
2023-04-12T00:03:14.808Z,3.50
2023-04-12T00:04:14.871Z,3.60
2023-04-12T00:05:14.745Z,3.30
2023-04-12T00:06:14.646Z,4.00
2023-04-12T00:07:14.630Z,3.30
2023-04-12T00:08:14.620Z,3.20
2023-04-12T00:09:14.612Z,3.60
2023-04-12T00:10:14.589Z,3.90
2023-04-12T00:11:14.595Z,3.80
2023-04-12T00:12:14.572Z,3.30
2023-04-12T00:13:14.563Z,3.80
2023-04-12T00:14:14.582Z,3.80
2023-04-12T00:15:14.520Z,4.10
2023-04-12T00:16:14.550Z,4.50
2023-04-12T00:17:14.538Z,4.10
2023-04-12T00:18:14.513Z,4.40
2023-04-12T00:19:14.478Z,4.50
2023-04-12T00:20:14.513Z,4.00
2023-04-12T00:21:14.466Z,4.00
2023-04-12T00:22:14.442Z,4.00
2023-04-12T00:23:14.450Z,3.90
2023-04-12T00:24:14.416Z,4.60
2023-04-12T00:25:14.413Z,4.50
2023-04-12T00:26:14.415Z,4.60
2023-04-12T00:27:14.397Z,4.50
2023-04-12T00:28:14.364Z,3.80
2023-04-12T00:29:14.347Z,3.70
2023-04-12T00:30:14.355Z,3.30
2023-04-12T00:31:14.374Z,3.40
2023-04-12T00:32:14.305Z,3.90
2023-04-12T00:33:14.296Z,3.60
2023-04-12T00:34:14.300Z,3.40
2023-04-12T00:35:14.278Z,3.40
2023-04-12T00:36:14.377Z,3.70
2023-04-12T00:37:14.249Z,3.20
2023-04-12T00:38:14.245Z,3.20
2023-04-12T00:39:14.228Z,3.50
2023-04-12T00:40:14.253Z,3.40
2023-04-12T00:41:14.211Z,3.60
2023-04-12T00:42:14.182Z,3.60
2023-04-12T00:43:14.162Z,3.90
2023-04-12T00:44:14.157Z,3.40
2023-04-12T00:45:14.149Z,3.30
2023-04-12T00:46:14.148Z,3.30
2023-04-12T00:47:14.107Z,3.00
2023-04-12T00:48:14.105Z,3.60
2023-04-12T00:49:14.097Z,3.30
2023-04-12T00:50:14.111Z,3.60
2023-04-12T00:51:14.069Z,3.50
2023-04-12T00:52:14.074Z,3.00
2023-04-12T00:53:14.052Z,3.60
2023-04-12T00:54:14.040Z,3.50
2023-04-12T00:55:14.049Z,3.10
2023-04-12T00:56:14.007Z,3.00
2023-04-12T00:57:13.991Z,3.30
2023-04-12T00:58:13.994Z,2.90
2023-04-12T00:59:13.964Z,3.00
2023-04-12T01:00:14.134Z,3.00
2023-04-12T01:01:13.993Z,2.80
2023-04-12T01:02:14.005Z,2.90
2023-04-12T01:03:14.131Z,2.80
2023-04-12T01:04:14.020Z,2.50
2023-04-12T01:05:13.895Z,2.80
2023-04-12T01:06:13.912Z,2.60
2023-04-12T01:07:13.875Z,2.50
2023-04-12T01:08:13.860Z,3.00
2023-04-12T01:09:13.852Z,2.70
2023-04-12T01:10:13.831Z,2.90
2023-04-12T01:11:13.812Z,2.80
2023-04-12T01:12:13.804Z,2.90
2023-04-12T01:13:13.769Z,2.30
2023-04-12T01:14:13.786Z,3.30
2023-04-12T01:15:13.756Z,2.70
2023-04-12T01:16:13.787Z,2.90
2023-04-12T01:17:13.715Z,2.60
2023-04-12T01:18:13.735Z,3.10
2023-04-12T01:19:13.698Z,3.00
2023-04-12T01:20:13.832Z,2.60
2023-04-12T01:21:13.676Z,2.20
2023-04-12T01:22:13.756Z,2.60
2023-04-12T01:23:13.650Z,2.50
2023-04-12T01:24:13.695Z,2.50
2023-04-12T01:25:13.637Z,3.00
2023-04-12T01:26:13.624Z,3.10
2023-04-12T01:27:13.656Z,2.60
2023-04-12T01:28:13.588Z,2.90
2023-04-12T01:29:13.582Z,3.30
2023-04-12T01:30:13.578Z,2.60
2023-04-12T01:31:13.591Z,2.90
2023-04-12T01:32:13.544Z,2.90
2023-04-12T01:33:13.526Z,2.80
2023-04-12T01:34:13.494Z,2.70
2023-04-12T01:35:13.492Z,2.80
2023-04-12T01:36:13.508Z,3.40
2023-04-12T01:37:13.480Z,3.40
2023-04-12T01:38:13.450Z,2.90
2023-04-12T01:39:13.457Z,2.80
2023-04-12T01:40:13.449Z,3.30
2023-04-12T01:41:13.414Z,3.00
2023-04-12T01:42:13.420Z,3.10
2023-04-12T01:43:13.417Z,2.80
2023-04-12T01:44:13.385Z,2.90
2023-04-12T01:45:13.370Z,3.30
2023-04-12T01:46:13.419Z,2.90
2023-04-12T01:47:13.347Z,3.10
2023-04-12T01:48:13.520Z,2.90
2023-04-12T01:49:13.307Z,2.90
2023-04-12T01:50:13.337Z,2.80
2023-04-12T01:51:13.293Z,2.70
2023-04-12T01:52:13.275Z,3.20
2023-04-12T01:53:13.273Z,2.80
2023-04-12T01:54:13.258Z,2.40
2023-04-12T01:55:13.224Z,2.90
2023-04-12T01:56:13.252Z,2.90
2023-04-12T01:57:13.208Z,2.90
2023-04-12T01:58:13.202Z,3.50
2023-04-12T01:59:13.176Z,3.80
2023-04-12T02:00:13.201Z,5.00
2023-04-12T02:01:13.225Z,5.40
2023-04-12T02:02:13.244Z,5.30
2023-04-12T02:03:13.315Z,4.80
2023-04-12T02:04:13.265Z,5.40
2023-04-12T02:05:13.105Z,3.10
2023-04-12T02:06:13.109Z,3.00
2023-04-12T02:07:13.099Z,2.80
2023-04-12T02:08:13.087Z,2.80
2023-04-12T02:09:13.058Z,2.90
2023-04-12T02:10:13.052Z,3.10
2023-04-12T02:11:13.063Z,2.80
2023-04-12T02:12:13.009Z,2.80
2023-04-12T02:13:13.016Z,2.70
2023-04-12T02:14:12.979Z,2.90
2023-04-12T02:15:12.971Z,2.90
2023-04-12T02:16:12.995Z,3.20
2023-04-12T02:17:12.957Z,2.80
2023-04-12T02:18:12.973Z,3.00
2023-04-12T02:19:12.957Z,3.00
2023-04-12T02:20:12.909Z,2.90
2023-04-12T02:21:12.917Z,3.00
2023-04-12T02:22:12.879Z,3.00
2023-04-12T02:23:12.879Z,2.70
2023-04-12T02:24:12.868Z,3.20
2023-04-12T02:25:12.858Z,3.00
2023-04-12T02:26:12.835Z,2.70
2023-04-12T02:27:12.844Z,3.10
2023-04-12T02:28:12.826Z,2.80
2023-04-12T02:29:12.813Z,3.10
2023-04-12T02:30:12.781Z,3.30
2023-04-12T02:31:12.800Z,3.00
2023-04-12T02:32:12.750Z,2.60
2023-04-12T02:33:12.752Z,3.20
2023-04-12T02:34:12.729Z,3.00
2023-04-12T02:35:12.713Z,2.80
2023-04-12T02:36:12.739Z,2.60
2023-04-12T02:37:12.685Z,3.00
2023-04-12T02:38:12.669Z,2.40
2023-04-12T02:39:12.668Z,2.60
2023-04-12T02:40:12.662Z,2.90
2023-04-12T02:41:12.645Z,2.80
2023-04-12T02:42:12.642Z,3.00
2023-04-12T02:43:12.607Z,3.20
2023-04-12T02:44:12.625Z,2.90
2023-04-12T02:45:12.590Z,2.90
2023-04-12T02:46:12.620Z,3.00
2023-04-12T02:47:12.563Z,2.80
2023-04-12T02:48:12.616Z,2.80
2023-04-12T02:49:12.536Z,2.70
2023-04-12T02:50:12.541Z,2.80
2023-04-12T02:51:12.534Z,2.90
2023-04-12T02:52:12.496Z,3.20
2023-04-12T02:53:12.516Z,3.20
2023-04-12T02:54:12.484Z,3.50
2023-04-12T02:55:12.480Z,2.90
2023-04-12T02:56:12.468Z,3.90
2023-04-12T02:57:12.441Z,3.30
2023-04-12T02:58:12.428Z,3.30
2023-04-12T02:59:12.412Z,3.30
2023-04-12T03:00:12.539Z,3.00
2023-04-12T03:01:12.394Z,3.90
2023-04-12T03:02:12.454Z,3.40
2023-04-12T03:03:12.495Z,3.10
2023-04-12T03:04:12.427Z,3.50
2023-04-12T03:05:12.349Z,3.90
2023-04-12T03:06:12.352Z,4.60
2023-04-12T03:07:12.320Z,5.60
2023-04-12T03:08:12.285Z,6.00
2023-04-12T03:09:12.290Z,6.50
2023-04-12T03:10:12.262Z,6.90
2023-04-12T03:11:12.251Z,6.70
2023-04-12T03:12:12.242Z,6.90
2023-04-12T03:13:12.245Z,5.20
2023-04-12T03:14:12.198Z,6.40
2023-04-12T03:15:12.198Z,5.60
2023-04-12T03:16:12.222Z,5.50
2023-04-12T03:17:12.198Z,5.90
2023-04-12T03:18:12.208Z,5.60
2023-04-12T03:19:12.159Z,5.90
2023-04-12T03:20:12.180Z,5.30
2023-04-12T03:21:12.170Z,5.00
2023-04-12T03:22:12.120Z,4.40
2023-04-12T03:23:12.098Z,3.60
2023-04-12T03:24:12.112Z,3.60
2023-04-12T03:25:12.118Z,3.10
2023-04-12T03:26:12.053Z,3.00
2023-04-12T03:27:12.051Z,3.30
2023-04-12T03:28:12.020Z,2.50
2023-04-12T03:29:12.018Z,2.80
2023-04-12T03:30:12.015Z,3.10
2023-04-12T03:31:12.037Z,3.00
2023-04-12T03:32:12.006Z,2.90
2023-04-12T03:33:11.973Z,2.90
2023-04-12T03:34:11.950Z,2.80
2023-04-12T03:35:11.959Z,2.50
2023-04-12T03:36:11.939Z,2.70
2023-04-12T03:37:12.098Z,3.00
2023-04-12T03:38:11.986Z,2.50
2023-04-12T03:39:11.879Z,2.80
2023-04-12T03:40:11.880Z,2.30
2023-04-12T03:41:11.854Z,2.50
2023-04-12T03:42:21.554Z,2.90
2023-04-12T03:43:12.828Z,2.70
2023-04-12T03:44:11.832Z,2.90
2023-04-12T03:45:11.801Z,2.90
2023-04-12T03:46:11.827Z,2.60
2023-04-12T03:47:11.788Z,2.70
2023-04-12T03:48:11.795Z,3.20
2023-04-12T03:49:11.759Z,3.00
2023-04-12T04:03:02.290Z,2.90
2023-04-12T04:04:02.781Z,2.30
2023-04-12T04:05:02.270Z,3.00
2023-04-12T04:06:02.167Z,2.40
2023-04-12T04:07:02.170Z,2.70
2023-04-12T04:08:02.217Z,3.10
2023-04-12T04:09:02.163Z,2.70
2023-04-12T04:10:02.136Z,2.60
2023-04-12T04:11:02.125Z,2.80
2023-04-12T04:12:02.155Z,2.80
2023-04-12T04:13:02.075Z,2.70
2023-04-12T04:14:02.089Z,2.50
2023-04-12T04:15:02.056Z,2.40
2023-04-12T04:16:02.096Z,2.70
2023-04-12T04:17:02.025Z,2.80
2023-04-12T04:18:02.057Z,2.70
2023-04-12T04:19:02.113Z,3.00
2023-04-12T04:20:01.989Z,3.20
2023-04-12T04:21:01.988Z,3.00
2023-04-12T04:22:01.966Z,2.60
2023-04-12T04:23:01.963Z,2.80
2023-04-12T04:24:01.946Z,2.80
2023-04-12T04:25:01.958Z,3.10
2023-04-12T04:26:01.924Z,3.10
2023-04-12T04:27:01.884Z,3.00
2023-04-12T04:28:01.900Z,3.10
2023-04-12T04:29:01.871Z,3.20
2023-04-12T04:30:01.876Z,3.20
2023-04-12T04:31:01.859Z,2.60
2023-04-12T04:32:01.887Z,2.70
2023-04-12T04:33:01.915Z,3.00
2023-04-12T04:34:01.809Z,2.80
2023-04-12T04:35:01.799Z,2.90
2023-04-12T04:36:01.852Z,2.50
2023-04-12T04:37:01.768Z,2.50
2023-04-12T04:38:01.769Z,3.00
2023-04-12T04:39:01.805Z,2.80
2023-04-12T04:40:01.717Z,2.90
2023-04-12T04:41:01.726Z,3.10
2023-04-12T04:42:01.725Z,3.00
2023-04-12T04:43:01.696Z,2.90
2023-04-12T04:44:01.673Z,2.90
2023-04-12T04:45:01.690Z,2.70
2023-04-12T04:46:01.669Z,3.30
2023-04-12T04:47:01.646Z,3.30
2023-04-12T04:48:01.658Z,3.10
2023-04-12T04:49:01.693Z,2.50
2023-04-12T04:50:01.618Z,2.90
2023-04-12T04:51:01.580Z,3.20
2023-04-12T04:52:01.569Z,2.80
2023-04-12T04:53:01.571Z,2.90
2023-04-12T04:54:01.600Z,2.80
2023-04-12T04:55:02.921Z,3.10
2023-04-12T04:56:01.552Z,3.00
2023-04-12T04:57:01.494Z,2.80
2023-04-12T04:58:01.503Z,3.00
2023-04-12T04:59:01.737Z,2.80
2023-04-12T05:00:01.454Z,3.00
2023-04-12T05:01:01.479Z,3.00
2023-04-12T05:02:01.472Z,2.70
2023-04-12T05:03:01.516Z,2.90
2023-04-12T05:04:01.545Z,2.90
2023-04-12T05:05:01.418Z,2.80
2023-04-12T05:06:01.405Z,3.10
2023-04-12T05:07:01.374Z,2.80
2023-04-12T05:08:01.366Z,2.70
2023-04-12T05:09:01.347Z,2.70
2023-04-12T05:10:01.411Z,2.40
2023-04-12T05:11:01.338Z,2.90
2023-04-12T05:12:01.305Z,2.90
2023-04-12T05:13:01.324Z,2.80
2023-04-12T05:14:01.290Z,2.90
2023-04-12T05:16:01.264Z,2.80
2023-04-12T05:17:01.371Z,2.70
2023-04-12T05:18:01.269Z,2.90
2023-04-12T05:19:01.211Z,2.80
2023-04-12T05:20:01.213Z,3.00
2023-04-12T05:21:01.189Z,3.10
2023-04-12T05:22:01.177Z,3.10
2023-04-12T05:23:01.224Z,2.60
2023-04-12T05:24:01.187Z,2.90
2023-04-12T05:25:01.145Z,3.00
2023-04-12T05:26:01.134Z,2.50
2023-04-12T05:27:01.130Z,3.00
2023-04-12T05:28:01.108Z,2.40
2023-04-12T05:29:01.095Z,3.10
2023-04-12T05:30:01.134Z,2.60
2023-04-12T05:31:01.126Z,2.80
2023-04-12T05:32:01.037Z,2.50
2023-04-12T05:33:01.096Z,2.90
2023-04-12T05:34:01.040Z,2.90
2023-04-12T05:35:01.029Z,3.00
2023-04-12T05:36:01.054Z,2.90
2023-04-12T05:37:00.981Z,2.80
2023-04-12T05:38:00.976Z,2.70
2023-04-12T05:39:00.992Z,2.60
2023-04-12T05:40:00.954Z,2.60
2023-04-12T05:41:00.960Z,2.80
2023-04-12T05:42:00.940Z,2.90
2023-04-12T05:43:00.946Z,2.80
2023-04-12T05:44:00.892Z,2.90
2023-04-12T05:45:00.886Z,2.80
2023-04-12T05:46:00.905Z,2.90
2023-04-12T05:47:00.870Z,2.80
2023-04-12T05:48:00.904Z,2.90
2023-04-12T05:49:00.832Z,3.30
2023-04-12T05:50:00.830Z,2.70
2023-04-12T05:51:00.857Z,2.70
2023-04-12T05:52:00.791Z,2.80
2023-04-12T05:53:00.774Z,3.00
2023-04-12T05:54:00.793Z,2.80
2023-04-12T05:55:00.787Z,2.90
2023-04-12T05:56:00.757Z,3.10
2023-04-12T05:57:00.724Z,2.80
2023-04-12T05:58:00.723Z,2.50
2023-04-12T05:59:00.716Z,3.30
2023-04-12T06:00:00.685Z,2.90
2023-04-12T06:01:00.701Z,3.20
2023-04-12T06:02:00.728Z,2.70
2023-04-12T06:03:00.837Z,3.10
2023-04-12T06:04:00.793Z,3.00
2023-04-12T06:05:00.717Z,3.10
2023-04-12T06:06:00.619Z,3.00
2023-04-12T06:07:00.640Z,3.10
2023-04-12T06:08:00.635Z,2.90
2023-04-12T06:09:00.662Z,2.90
2023-04-12T06:10:00.580Z,3.10
2023-04-12T06:11:00.551Z,3.00
2023-04-12T06:12:00.554Z,3.00
2023-04-12T06:13:00.544Z,2.80
2023-04-12T06:14:00.508Z,2.60
2023-04-12T06:15:00.522Z,3.20
2023-04-12T06:16:00.525Z,3.10
2023-04-12T06:17:00.502Z,3.00
2023-04-12T06:18:00.611Z,2.70
2023-04-12T06:19:00.771Z,3.10
2023-04-12T06:20:00.461Z,3.10
2023-04-12T06:21:00.451Z,3.30
2023-04-12T06:22:00.436Z,2.80
2023-04-12T06:23:00.424Z,2.90
2023-04-12T06:24:00.402Z,2.70
2023-04-12T06:25:00.389Z,3.10
2023-04-12T06:26:00.419Z,3.00
2023-04-12T06:27:00.366Z,3.40
2023-04-12T06:28:00.340Z,3.10
2023-04-12T06:29:00.320Z,3.40
2023-04-12T06:30:00.309Z,3.10
2023-04-12T06:31:00.389Z,3.80
2023-04-12T06:32:00.311Z,3.20
2023-04-12T06:33:00.330Z,3.50
2023-04-12T06:34:00.278Z,3.30
2023-04-12T06:35:00.247Z,3.50
2023-04-12T06:36:00.261Z,3.50
2023-04-12T06:37:00.228Z,3.80
2023-04-12T06:38:00.241Z,3.40
2023-04-12T06:39:00.193Z,4.40
2023-04-12T06:40:00.243Z,4.30
2023-04-12T06:41:00.156Z,4.00
2023-04-12T06:42:00.161Z,3.80
2023-04-12T06:43:00.178Z,4.00
2023-04-12T06:44:00.151Z,3.30
2023-04-12T06:45:00.190Z,3.60
2023-04-12T06:46:00.308Z,3.80
2023-04-12T06:47:00.207Z,4.10
2023-04-12T06:48:00.174Z,3.30
2023-04-12T06:49:00.363Z,3.90
2023-04-12T06:50:00.051Z,3.70
2023-04-12T06:51:00.059Z,3.90
2023-04-12T06:52:00.053Z,3.60
2023-04-12T06:53:00.018Z,3.70
2023-04-12T06:54:00.007Z,3.90
2023-04-12T06:54:59.995Z,3.60
2023-04-12T06:55:59.998Z,3.90
2023-04-12T06:56:59.981Z,3.70
2023-04-12T06:57:59.967Z,3.70
2023-04-12T06:59:00.346Z,3.60
2023-04-12T06:59:59.943Z,3.70
2023-04-12T07:00:59.962Z,3.50
2023-04-12T07:01:59.928Z,3.70
2023-04-12T07:02:59.960Z,3.80
2023-04-12T07:03:59.951Z,3.70
2023-04-12T07:04:59.855Z,9.80
2023-04-12T07:06:02.141Z,5.80
2023-04-12T07:07:00.844Z,5.70
2023-04-12T07:07:59.812Z,4.40
2023-04-12T07:09:00.012Z,5.20
2023-04-12T07:09:59.818Z,3.80
2023-04-12T07:11:08.612Z,3.70
2023-04-12T07:12:00.778Z,3.90
2023-04-12T07:12:59.755Z,4.10
2023-04-12T07:13:59.779Z,4.30
2023-04-12T07:14:59.731Z,4.20
2023-04-12T07:15:59.735Z,4.20
2023-04-12T07:16:59.732Z,4.80
2023-04-12T07:17:59.739Z,4.10
2023-04-12T07:19:00.036Z,4.00
2023-04-12T07:19:59.663Z,4.40
2023-04-12T07:20:59.669Z,4.00
2023-04-12T07:21:59.671Z,4.50
2023-04-12T07:22:59.624Z,4.90
2023-04-12T07:23:59.653Z,4.10
2023-04-12T07:24:59.598Z,4.40
2023-04-12T07:25:59.568Z,4.40
2023-04-12T07:26:59.561Z,4.10
2023-04-12T07:27:59.549Z,3.80
2023-04-12T07:28:59.672Z,4.80
2023-04-12T07:29:59.555Z,4.00
2023-04-12T07:30:59.523Z,4.30
2023-04-12T07:31:59.766Z,3.90
2023-04-12T07:33:08.727Z,4.20
2023-04-12T07:34:00.547Z,3.80
2023-04-12T07:34:59.500Z,4.20
2023-04-12T07:35:59.485Z,3.50
2023-04-12T07:36:59.434Z,3.90
2023-04-12T07:37:59.420Z,4.00
2023-04-12T07:38:59.707Z,4.20
2023-04-12T07:39:59.442Z,4.00
2023-04-12T07:40:59.396Z,4.10
2023-04-12T07:41:59.421Z,3.90
2023-04-12T07:42:59.369Z,4.00
2023-04-12T07:43:59.342Z,4.10
2023-04-12T07:44:59.339Z,3.70
2023-04-12T07:45:59.461Z,3.80
2023-04-12T07:46:59.306Z,4.10
2023-04-12T07:47:59.352Z,3.50
2023-04-12T07:48:59.532Z,3.70
2023-04-12T07:49:59.267Z,3.70
2023-04-12T07:50:59.259Z,3.80
2023-04-12T07:51:59.237Z,3.40
2023-04-12T07:52:59.255Z,3.60
2023-04-12T07:53:59.417Z,3.50
2023-04-12T07:54:59.243Z,3.30
2023-04-12T07:55:59.195Z,3.70
2023-04-12T07:56:59.189Z,3.40
2023-04-12T07:57:59.152Z,3.40
2023-04-12T07:58:59.515Z,3.40
2023-04-12T07:59:59.166Z,6.40
2023-04-12T08:01:01.087Z,3.50
2023-04-12T08:01:59.210Z,4.10
2023-04-12T08:02:59.268Z,3.10
2023-04-12T08:03:59.251Z,3.40
2023-04-12T08:04:59.091Z,3.00
2023-04-12T08:05:59.177Z,3.20
2023-04-12T08:06:59.046Z,2.80
2023-04-12T08:07:59.076Z,2.40
2023-04-12T08:08:59.045Z,2.70
2023-04-12T08:09:59.002Z,2.60
2023-04-12T08:10:58.986Z,2.60
2023-04-12T08:11:58.985Z,2.80
2023-04-12T08:12:58.959Z,2.40
2023-04-12T08:13:59.165Z,2.50
2023-04-12T08:14:58.967Z,2.50
2023-04-12T08:15:58.985Z,2.30
2023-04-12T08:16:58.932Z,2.60
2023-04-12T08:17:58.940Z,2.60
2023-04-12T08:18:58.890Z,2.50
2023-04-12T08:19:58.894Z,2.50
2023-04-12T08:20:58.895Z,2.40
2023-04-12T08:21:58.892Z,2.70
2023-04-12T08:22:58.865Z,2.40
2023-04-12T08:23:59.205Z,2.50
2023-04-12T08:24:58.812Z,2.50
2023-04-12T08:25:58.811Z,2.30
2023-04-12T08:26:58.763Z,3.10
2023-04-12T08:27:58.762Z,2.70
2023-04-12T08:28:58.749Z,2.40
2023-04-12T08:29:58.754Z,2.20
2023-04-12T08:30:58.816Z,2.30
2023-04-12T08:31:58.733Z,3.20
2023-04-12T08:32:58.725Z,2.90
2023-04-12T08:33:58.825Z,2.50
2023-04-12T08:34:58.696Z,2.20
2023-04-12T08:35:58.719Z,2.40
2023-04-12T08:36:58.628Z,2.10
2023-04-12T08:37:58.613Z,2.40
2023-04-12T08:38:58.627Z,2.30
2023-04-12T08:39:58.617Z,2.10
2023-04-12T08:40:58.589Z,2.40
2023-04-12T08:41:58.580Z,2.40
2023-04-12T08:42:58.563Z,2.20
2023-04-12T08:43:58.656Z,2.20
2023-04-12T08:44:58.566Z,2.20
2023-04-12T08:45:58.523Z,2.10
2023-04-12T08:46:58.648Z,2.30
2023-04-12T08:47:58.535Z,2.10
2023-04-12T08:48:58.511Z,2.20
2023-04-12T08:49:58.469Z,2.20
2023-04-12T08:50:58.494Z,2.00
2023-04-12T08:51:58.432Z,2.20
2023-04-12T08:52:58.429Z,2.40
2023-04-12T08:53:58.528Z,2.10
2023-04-12T08:54:58.399Z,2.10
2023-04-12T08:55:58.404Z,2.10
2023-04-12T08:56:58.363Z,2.30
2023-04-12T08:57:58.374Z,1.80
2023-04-12T08:58:58.358Z,2.00
2023-04-12T08:59:58.331Z,2.10
2023-04-12T09:00:58.379Z,2.00
2023-04-12T09:01:58.397Z,2.10
2023-04-12T09:02:58.419Z,2.30
2023-04-12T09:03:58.782Z,4.60
2023-04-12T09:04:58.625Z,2.40
2023-04-12T09:05:58.278Z,1.90
2023-04-12T09:06:58.242Z,2.10
2023-04-12T09:07:58.259Z,2.20
2023-04-12T09:08:58.272Z,4.00
2023-04-12T09:09:58.210Z,2.00
2023-04-12T09:10:58.198Z,1.90
2023-04-12T09:11:58.164Z,2.20
2023-04-12T09:12:58.172Z,2.00
2023-04-12T09:13:58.816Z,2.40
2023-04-12T09:14:58.127Z,2.00
2023-04-12T09:15:58.135Z,2.20
2023-04-12T09:16:58.163Z,2.10
2023-04-12T09:17:58.119Z,2.00
2023-04-12T09:18:58.392Z,1.70
2023-04-12T09:19:58.070Z,2.00
2023-04-12T09:20:58.092Z,1.80
2023-04-12T09:21:58.043Z,1.90
2023-04-12T09:22:58.058Z,2.10
2023-04-12T09:23:58.263Z,1.80
2023-04-12T09:24:57.995Z,2.30
2023-04-12T09:25:58.016Z,2.20
2023-04-12T09:26:57.964Z,2.00
2023-04-12T09:27:57.993Z,2.00
2023-04-12T09:28:57.978Z,2.00
2023-04-12T09:30:00.051Z,2.60
2023-04-12T09:30:57.973Z,2.10
2023-04-12T09:31:57.984Z,2.20
2023-04-12T09:32:57.935Z,2.30
2023-04-12T09:33:58.079Z,2.10
2023-04-12T09:34:57.957Z,2.50
2023-04-12T09:35:57.936Z,2.90
2023-04-12T09:36:57.894Z,2.60
2023-04-12T09:37:57.863Z,2.30
2023-04-12T09:38:57.822Z,2.20
2023-04-12T09:39:57.810Z,2.30
2023-04-12T09:40:57.857Z,2.30
2023-04-12T09:41:57.801Z,2.20
2023-04-12T09:42:57.782Z,2.60
2023-04-12T09:43:58.157Z,2.40
2023-04-12T09:44:57.733Z,2.30
2023-04-12T09:45:57.848Z,2.50
2023-04-12T09:46:57.779Z,2.50
2023-04-12T10:03:11.096Z,3.40
2023-04-12T10:04:10.840Z,3.40
2023-04-12T10:05:10.756Z,3.10
2023-04-12T10:06:10.644Z,3.20
2023-04-12T10:07:11.481Z,3.60
2023-04-12T10:08:10.892Z,3.30
2023-04-12T10:09:10.618Z,3.50
2023-04-12T10:10:10.572Z,3.90
2023-04-12T10:11:10.612Z,3.40
2023-04-12T10:12:10.553Z,3.60
2023-04-12T10:13:10.563Z,3.60
2023-04-12T10:14:10.571Z,3.30
2023-04-12T10:15:10.519Z,3.20
2023-04-12T10:16:10.564Z,3.40
2023-04-12T10:17:10.487Z,3.10
2023-04-12T10:18:10.558Z,3.50
2023-04-12T10:19:10.474Z,3.30
2023-04-12T10:20:10.459Z,3.20
2023-04-12T10:21:10.450Z,3.20
2023-04-12T10:22:10.451Z,3.50
2023-04-12T10:23:10.425Z,3.20
2023-04-12T10:24:10.390Z,3.50
2023-04-12T10:25:10.418Z,3.10
2023-04-12T10:26:10.408Z,2.90
2023-04-12T10:27:10.348Z,2.90
2023-04-12T10:28:10.359Z,2.80
2023-04-12T10:29:10.337Z,3.00
2023-04-12T10:30:10.359Z,3.10
2023-04-12T10:31:10.399Z,2.80
2023-04-12T10:32:10.457Z,3.60
2023-04-12T10:33:10.418Z,3.00
2023-04-12T10:34:10.267Z,2.70
2023-04-12T10:35:10.273Z,2.90
2023-04-12T10:36:10.322Z,2.40
2023-04-12T10:37:10.248Z,2.60
2023-04-12T10:38:10.219Z,2.40
2023-04-12T10:39:10.216Z,2.90
2023-04-12T10:40:10.200Z,2.60
2023-04-12T10:41:10.207Z,2.40
2023-04-12T10:42:10.161Z,2.30
2023-04-12T10:43:10.177Z,2.10
2023-04-12T10:44:10.129Z,2.50
2023-04-12T10:45:10.134Z,1.90
2023-04-12T10:46:10.122Z,2.10
2023-04-12T10:47:10.147Z,2.00
2023-04-12T10:48:10.232Z,1.80
2023-04-12T10:49:10.077Z,2.10
2023-04-12T10:50:10.070Z,2.00
2023-04-12T10:51:10.067Z,2.00
2023-04-12T10:52:10.098Z,2.30
2023-04-12T10:53:10.103Z,2.60
2023-04-12T10:54:10.018Z,2.50
2023-04-12T10:55:10.026Z,2.10
2023-04-12T10:56:09.992Z,2.50
2023-04-12T10:57:09.987Z,2.20
2023-04-12T10:58:09.958Z,2.20
2023-04-12T10:59:10.007Z,2.20
2023-04-12T11:00:09.938Z,2.10
2023-04-12T11:01:10.108Z,1.80
2023-04-12T11:02:10.057Z,1.90
2023-04-12T11:03:10.201Z,1.80
2023-04-12T11:04:10.135Z,2.00
2023-04-12T11:05:10.440Z,2.00
2023-04-12T11:06:24.098Z,2.20
2023-04-12T11:07:10.866Z,2.00
2023-04-12T11:08:09.825Z,2.20
2023-04-12T11:09:09.823Z,2.10
2023-04-12T11:10:09.808Z,2.30
2023-04-12T11:11:09.823Z,2.00
2023-04-12T11:12:11.096Z,2.40
2023-04-12T11:13:09.796Z,2.40
2023-04-12T11:14:09.769Z,2.50
2023-04-12T11:15:09.747Z,2.30
2023-04-12T11:16:09.757Z,2.50
2023-04-12T11:17:09.843Z,2.50
2023-04-12T11:18:09.731Z,2.60
2023-04-12T11:19:09.676Z,2.30
2023-04-12T11:20:09.686Z,2.30
2023-04-12T11:21:09.661Z,2.20
2023-04-12T11:22:09.622Z,2.40
2023-04-12T11:23:11.367Z,2.70
2023-04-12T11:24:09.608Z,2.20
2023-04-12T11:25:09.611Z,3.00
2023-04-12T11:26:09.573Z,2.80
2023-04-12T11:27:09.582Z,3.20
2023-04-12T11:28:25.108Z,3.10
2023-04-12T11:29:10.560Z,2.60
2023-04-12T11:30:09.541Z,2.70
2023-04-12T11:31:09.524Z,2.70
2023-04-12T11:32:09.575Z,2.50
2023-04-12T11:33:09.540Z,2.40
2023-04-12T11:34:09.493Z,2.70
2023-04-12T11:35:09.484Z,2.50
2023-04-12T11:36:09.456Z,2.40
2023-04-12T11:37:09.455Z,2.70
2023-04-12T11:38:09.451Z,2.90
2023-04-12T11:39:09.434Z,2.70
2023-04-12T11:40:09.449Z,2.80
2023-04-12T11:41:09.409Z,2.70
2023-04-12T11:42:09.414Z,2.90
2023-04-12T11:43:09.364Z,2.70
2023-04-12T11:44:09.349Z,2.50
2023-04-12T11:45:15.758Z,2.50
2023-04-12T11:46:10.419Z,2.70
2023-04-12T11:47:09.315Z,3.00
2023-04-12T11:48:09.378Z,3.00
2023-04-12T11:49:09.296Z,2.70
2023-04-12T11:50:09.266Z,2.90
2023-04-12T11:51:11.634Z,2.80
2023-04-12T11:52:09.274Z,3.10
2023-04-12T11:53:09.237Z,3.10
2023-04-12T11:54:09.238Z,2.90
2023-04-12T11:55:09.214Z,2.90
2023-04-12T11:56:09.249Z,2.70
2023-04-12T11:57:09.208Z,2.70
2023-04-12T11:58:09.169Z,2.60
2023-04-12T11:59:09.154Z,3.00
2023-04-12T12:00:09.158Z,2.70
2023-04-12T12:01:09.137Z,2.70
2023-04-12T12:02:22.065Z,3.00
2023-04-12T12:03:10.223Z,3.00
2023-04-12T12:04:09.256Z,3.40
2023-04-12T12:05:09.220Z,3.10
2023-04-12T12:06:09.274Z,2.70
2023-04-12T12:07:09.306Z,2.50
2023-04-12T12:08:09.074Z,3.00
2023-04-12T12:09:09.059Z,2.50
2023-04-12T12:10:09.006Z,3.20
2023-04-12T12:11:09.199Z,2.50
2023-04-12T12:12:08.977Z,3.00
2023-04-12T12:13:09.007Z,2.70
2023-04-12T12:14:08.955Z,2.70
2023-04-12T12:15:08.951Z,2.80
2023-04-12T12:16:09.009Z,2.30
2023-04-12T12:17:08.909Z,2.80
2023-04-12T12:18:09.059Z,2.40
2023-04-12T12:19:08.889Z,2.50
2023-04-12T12:20:08.880Z,2.60
2023-04-12T12:21:08.847Z,3.00
2023-04-12T12:22:08.870Z,3.10
2023-04-12T12:23:08.853Z,2.90
2023-04-12T12:24:08.828Z,2.70
2023-04-12T12:25:08.831Z,2.90
2023-04-12T12:26:17.910Z,2.80
2023-04-12T12:27:09.811Z,2.70
2023-04-12T12:28:08.858Z,2.90
2023-04-12T12:29:08.803Z,3.00
2023-04-12T12:30:08.766Z,2.90
2023-04-12T12:31:08.742Z,3.10
2023-04-12T12:32:08.731Z,2.70
2023-04-12T12:33:08.773Z,2.60
2023-04-12T12:34:09.380Z,2.90
2023-04-12T12:35:08.679Z,2.60
2023-04-12T12:36:08.719Z,2.80
2023-04-12T12:37:08.668Z,2.80
2023-04-12T12:38:08.676Z,2.60
2023-04-12T12:39:08.647Z,2.80
2023-04-12T12:40:08.654Z,2.80
2023-04-12T12:41:08.608Z,2.90
2023-04-12T12:42:08.613Z,3.10
2023-04-12T12:43:08.605Z,2.90
2023-04-12T12:44:08.662Z,2.80
2023-04-12T12:45:08.556Z,2.90
2023-04-12T12:46:08.596Z,2.90
2023-04-12T12:47:13.985Z,2.80
2023-04-12T12:48:09.664Z,2.90
2023-04-12T12:49:08.504Z,3.30
2023-04-12T12:50:08.530Z,3.20
2023-04-12T12:51:08.483Z,2.90
2023-04-12T12:52:08.470Z,2.90
2023-04-12T12:53:08.463Z,2.90
2023-04-12T12:54:08.482Z,3.20
2023-04-12T12:55:08.435Z,3.10
2023-04-12T12:56:08.406Z,3.20
2023-04-12T12:57:08.453Z,2.80
2023-04-12T12:58:08.675Z,3.10
2023-04-12T12:59:08.404Z,2.90
2023-04-12T13:00:08.379Z,3.50
2023-04-12T13:01:08.364Z,3.00
2023-04-12T13:02:08.418Z,3.50
2023-04-12T13:03:08.523Z,3.00
2023-04-12T13:04:08.484Z,3.10
2023-04-12T13:05:10.211Z,3.10
2023-04-12T13:06:08.281Z,3.70
2023-04-12T13:07:08.272Z,3.30
2023-04-12T13:08:08.278Z,2.90
2023-04-12T13:09:08.248Z,3.30
2023-04-12T13:10:08.294Z,3.00
2023-04-12T13:11:08.260Z,2.90
2023-04-12T13:12:08.200Z,3.00
2023-04-12T13:13:08.212Z,2.90
2023-04-12T13:14:08.177Z,3.10
2023-04-12T13:15:20.935Z,2.80
2023-04-12T13:16:09.186Z,2.70
2023-04-12T13:17:08.128Z,3.00
2023-04-12T13:18:08.165Z,2.90
2023-04-12T13:19:08.176Z,2.80
2023-04-12T13:20:08.117Z,3.20
2023-04-12T13:21:08.091Z,3.20
2023-04-12T13:22:08.093Z,3.00
2023-04-12T13:23:08.083Z,3.40
2023-04-12T13:24:08.041Z,3.20
2023-04-12T13:25:08.055Z,3.00
2023-04-12T13:26:08.044Z,3.30
2023-04-12T13:27:08.017Z,3.40
2023-04-12T13:28:08.004Z,3.10
2023-04-12T13:29:07.982Z,3.20
2023-04-12T13:30:07.971Z,2.90
2023-04-12T13:31:08.039Z,3.40
2023-04-12T13:32:08.229Z,3.10
2023-04-12T13:33:07.967Z,2.90
2023-04-12T13:34:08.018Z,3.20
2023-04-12T13:35:07.940Z,3.20
2023-04-12T13:36:07.901Z,3.50
2023-04-12T13:37:07.883Z,3.10
2023-04-12T13:38:07.894Z,3.60
2023-04-12T13:39:07.853Z,3.40
2023-04-12T13:40:07.855Z,3.40
2023-04-12T13:41:07.838Z,3.30
2023-04-12T13:42:07.824Z,3.70
2023-04-12T13:43:07.820Z,4.70
2023-04-12T13:44:07.794Z,3.80
2023-04-12T13:45:07.808Z,4.90
2023-04-12T13:46:07.835Z,4.20
2023-04-12T13:47:07.738Z,3.20